createdAt,value
2022-08-08T00:00:52.967Z,97480.41
2022-08-08T00:06:02.736Z,97476.59
2022-08-08T00:11:47.133Z,97473.47
2022-08-08T00:17:22.929Z,97471.50
2022-08-08T00:22:48.684Z,97468.91
2022-08-08T00:28:34.244Z,97464.31
2022-08-08T00:34:26.957Z,97469.28
2022-08-08T00:41:10.211Z,97464.50
2022-08-08T00:46:01.211Z,97464.88
2022-08-08T00:51:51.736Z,97466.41
2022-08-08T00:57:35.864Z,97462.78
2022-08-08T01:04:01.223Z,97473.16
2022-08-08T01:09:36.845Z,97468.88
2022-08-08T01:14:57.265Z,97465.41
2022-08-08T01:20:35.675Z,97468.38
2022-08-08T01:26:13.235Z,97466.06
2022-08-08T01:32:15.584Z,97466.91
2022-08-08T01:37:57.376Z,97467.56
2022-08-08T01:43:53.471Z,97457.97
2022-08-08T01:49:37.524Z,97463.72
2022-08-08T01:56:27.640Z,97458.75
2022-08-08T02:01:59.582Z,97462.06
2022-08-08T02:07:41.671Z,97463.97
2022-08-08T02:13:53.029Z,97456.13
2022-08-08T02:19:10.105Z,97455.13
2022-08-08T02:24:54.761Z,97464.81
2022-08-08T02:30:25.559Z,97455.09
2022-08-08T02:36:23.743Z,97462.53
2022-08-08T02:42:03.637Z,97467.59
2022-08-08T02:47:55.813Z,97464.28
2022-08-08T02:53:27.932Z,97462.78
2022-08-08T02:59:17.312Z,97462.09
2022-08-08T03:05:21.886Z,97473.63
2022-08-08T03:11:47.526Z,97467.72
2022-08-08T03:17:20.243Z,97473.03
2022-08-08T03:22:57.110Z,97470.72
2022-08-08T03:28:41.200Z,97468.03
2022-08-08T03:34:02.475Z,97470.78
2022-08-08T03:39:26.008Z,97475.66
2022-08-08T03:44:52.298Z,97480.28
2022-08-08T03:50:20.135Z,97485.34
2022-08-08T03:55:57.327Z,97492.28
2022-08-08T04:01:25.865Z,97493.84
2022-08-08T04:07:01.385Z,97496.84
2022-08-08T04:12:27.379Z,97495.03
2022-08-08T04:17:59.145Z,97512.47
2022-08-08T04:23:21.932Z,97507.50
2022-08-08T04:28:44.803Z,97506.00
2022-08-08T04:34:07.411Z,97515.34
2022-08-08T04:40:04.226Z,97519.19
2022-08-08T04:45:10.700Z,97527.44
2022-08-08T04:50:38.387Z,97517.47
2022-08-08T04:56:04.218Z,97528.03
2022-08-08T05:01:35.539Z,97531.66
2022-08-08T05:07:09.418Z,97526.53
2022-08-08T05:12:31.845Z,97536.19
2022-08-08T05:17:57.977Z,97540.53
2022-08-08T05:23:20.590Z,97540.09
2022-08-08T05:28:57.468Z,97550.09
2022-08-08T05:34:50.009Z,97548.78
2022-08-08T05:40:16.942Z,97543.22
2022-08-08T05:45:42.773Z,97548.50
2022-08-08T05:51:15.608Z,97548.63
2022-08-08T05:56:47.408Z,97552.25
2022-08-08T06:02:41.024Z,97551.50
2022-08-08T06:09:59.105Z,97547.78
2022-08-08T06:15:07.569Z,97551.88
2022-08-08T06:20:36.224Z,97555.63
2022-08-08T06:26:38.651Z,97554.41
2022-08-08T06:31:52.402Z,97557.88
2022-08-08T06:37:37.301Z,97557.16
2022-08-08T06:43:06.108Z,97556.19
2022-08-08T06:48:51.150Z,97560.56
2022-08-08T06:54:13.303Z,97564.09
2022-08-08T07:00:01.735Z,97564.69
2022-08-08T07:05:24.861Z,97565.88
2022-08-08T07:10:55.013Z,97562.97
2022-08-08T07:16:29.074Z,97562.38
2022-08-08T07:22:04.952Z,97553.94
2022-08-08T07:27:47.324Z,97561.56
2022-08-08T07:33:22.993Z,97561.53
2022-08-08T07:38:52.840Z,97569.91
2022-08-08T07:44:36.936Z,97579.47
2022-08-08T07:49:57.490Z,97581.50
2022-08-08T07:55:29.282Z,97586.94
2022-08-08T08:01:04.513Z,97588.88
2022-08-08T08:06:27.365Z,97586.47
2022-08-08T08:11:51.883Z,97599.03
2022-08-08T08:17:22.906Z,97588.63
2022-08-08T08:22:44.848Z,97594.53
2022-08-08T08:28:09.638Z,97599.13
2022-08-08T08:33:32.615Z,97604.38
2022-08-08T08:38:57.143Z,97607.78
2022-08-08T08:44:29.053Z,97607.78
2022-08-08T08:49:53.057Z,97600.03
2022-08-08T08:55:16.177Z,97608.25
2022-08-08T09:01:03.150Z,97597.09
2022-08-08T09:06:37.958Z,97604.78
2022-08-08T09:12:09.718Z,97606.69
2022-08-08T09:17:41.952Z,97607.72
2022-08-08T09:23:17.838Z,97611.81
2022-08-08T09:28:47.264Z,97610.03
2022-08-08T09:34:32.834Z,97600.19
2022-08-08T09:40:03.235Z,97598.94
2022-08-08T09:46:03.112Z,97601.22
2022-08-08T09:51:30.409Z,97599.63
2022-08-08T09:57:16.082Z,97599.19
2022-08-08T10:02:40.563Z,97591.28
2022-08-08T10:08:02.600Z,97594.31
2022-08-08T10:13:32.507Z,97587.31
2022-08-08T10:19:04.633Z,97595.97
2022-08-08T10:24:29.592Z,97579.56
2022-08-08T10:30:01.035Z,97584.63
2022-08-08T10:36:08.998Z,97577.03
2022-08-08T10:41:20.090Z,97578.25
2022-08-08T10:46:41.794Z,97581.81
2022-08-08T10:52:07.230Z,97583.25
2022-08-08T10:57:45.314Z,97585.25
2022-08-08T11:03:16.509Z,97582.41
2022-08-08T11:08:41.974Z,97583.13
2022-08-08T11:14:06.439Z,97578.25
2022-08-08T11:19:29.877Z,97575.47
2022-08-08T11:24:54.916Z,97576.22
2022-08-08T11:30:19.895Z,97574.88
2022-08-08T11:35:44.032Z,97571.16
2022-08-08T11:41:05.149Z,97578.91
2022-08-08T11:46:30.470Z,97565.94
2022-08-08T11:51:54.508Z,97570.28
2022-08-08T11:57:18.492Z,97564.66
2022-08-08T12:02:51.231Z,97559.13
2022-08-08T12:08:16.543Z,97562.59
2022-08-08T12:14:02.675Z,97571.25
2022-08-08T12:19:21.873Z,97558.41
2022-08-08T12:24:56.319Z,97554.97
2022-08-08T12:30:21.712Z,97547.19
2022-08-08T12:35:53.049Z,97549.25
2022-08-08T12:41:33.412Z,97551.91
2022-08-08T12:47:00.248Z,97543.56
2022-08-08T12:52:28.558Z,97545.00
2022-08-08T12:57:56.553Z,97538.81
2022-08-08T13:03:34.190Z,97540.50
2022-08-08T13:08:56.388Z,97539.31
2022-08-08T13:14:17.623Z,97536.06
2022-08-08T13:19:49.936Z,97538.13
2022-08-08T13:25:22.266Z,97534.66
2022-08-08T13:30:43.720Z,97536.28
2022-08-08T13:36:07.723Z,97533.38
2022-08-08T13:41:38.916Z,97529.09
2022-08-08T13:47:07.116Z,97528.50
2022-08-08T13:52:37.899Z,97529.94
2022-08-08T13:58:08.049Z,97542.44
2022-08-08T14:03:52.219Z,97542.41
2022-08-08T14:09:25.303Z,97537.50
2022-08-08T14:14:51.648Z,97529.34
2022-08-08T14:20:16.742Z,97526.47
2022-08-08T14:26:00.663Z,97519.31
2022-08-08T14:32:05.988Z,97522.59
2022-08-08T14:37:16.702Z,97519.13
2022-08-08T14:42:55.228Z,97529.13
2022-08-08T14:48:27.493Z,97520.81
2022-08-08T14:53:59.126Z,97522.63
2022-08-08T14:59:22.536Z,97530.38
2022-08-08T15:05:08.135Z,97532.00
2022-08-08T15:10:32.429Z,97538.13
2022-08-08T15:16:02.112Z,97536.69
2022-08-08T15:21:30.023Z,97535.84
2022-08-08T15:26:52.607Z,97536.66
2022-08-08T15:32:20.732Z,97530.09
2022-08-08T15:37:43.759Z,97524.38
2022-08-08T15:43:35.027Z,97527.03
2022-08-08T15:48:45.698Z,97524.38
2022-08-08T15:54:06.922Z,97519.69
2022-08-08T16:00:06.473Z,97520.09
2022-08-08T16:05:23.597Z,97530.50
2022-08-08T16:13:03.377Z,97523.97
2022-08-08T16:16:25.640Z,97521.91
2022-08-08T16:21:48.938Z,97523.78
2022-08-08T16:27:18.121Z,97522.13
2022-08-08T16:32:39.427Z,97524.38
2022-08-08T16:38:01.976Z,97519.44
2022-08-08T16:43:24.235Z,97516.97
2022-08-08T16:48:44.822Z,97527.41
2022-08-08T16:55:22.583Z,97521.91
2022-08-08T16:59:52.439Z,97523.75
2022-08-08T17:05:14.137Z,97531.97
2022-08-08T17:10:34.746Z,97533.16
2022-08-08T17:15:57.015Z,97538.09
2022-08-08T17:21:18.665Z,97536.03
2022-08-08T17:26:42.200Z,97535.41
2022-08-08T17:32:05.879Z,97542.34
2022-08-08T17:37:28.429Z,97546.00
2022-08-08T17:42:53.408Z,97540.28
2022-08-08T17:48:29.428Z,97552.28
2022-08-08T17:53:57.776Z,97547.66
2022-08-08T17:59:20.831Z,97550.44
2022-08-08T18:04:50.501Z,97552.84
2022-08-08T18:10:14.033Z,97563.00
2022-08-08T18:15:34.877Z,97557.81
2022-08-08T18:20:59.624Z,97570.88
2022-08-08T18:26:20.465Z,97567.06
2022-08-08T18:31:41.123Z,97583.25
2022-08-08T18:37:08.074Z,97593.78
2022-08-08T18:42:29.221Z,97597.00
2022-08-08T18:47:49.907Z,97607.56
2022-08-08T18:53:10.987Z,97609.88
2022-08-08T18:58:33.329Z,97619.59
2022-08-08T19:04:05.350Z,97618.53
2022-08-08T19:09:49.617Z,97623.75
2022-08-08T19:15:13.705Z,97635.75
2022-08-08T19:20:37.403Z,97645.25
2022-08-08T19:26:20.274Z,97646.19
2022-08-08T19:31:40.847Z,97645.25
2022-08-08T19:37:07.797Z,97650.63
2022-08-08T19:42:36.950Z,97655.41
2022-08-08T19:47:59.656Z,97659.88
2022-08-08T19:53:37.946Z,97663.78
2022-08-08T19:59:00.729Z,97669.78
2022-08-08T20:04:22.357Z,97675.63
2022-08-08T20:09:55.270Z,97674.78
2022-08-08T20:15:17.436Z,97667.38
2022-08-08T20:20:38.320Z,97681.97
2022-08-08T20:26:02.357Z,97688.41
2022-08-08T20:31:22.993Z,97687.53
2022-08-08T20:36:44.660Z,97700.44
2022-08-08T20:42:06.917Z,97694.22
2022-08-08T20:47:36.672Z,97691.69
2022-08-08T20:53:00.976Z,97692.81
2022-08-08T20:58:23.274Z,97696.78
2022-08-08T21:03:55.607Z,97697.94
2022-08-08T21:09:22.045Z,97705.94
2022-08-08T21:14:43.594Z,97702.31
2022-08-08T21:20:10.426Z,97692.56
2022-08-08T21:25:36.238Z,97703.22
2022-08-08T21:30:57.237Z,97690.81
2022-08-08T21:36:21.820Z,97693.59
2022-08-08T21:41:53.736Z,97696.94
2022-08-08T21:48:05.524Z,97699.75
2022-08-08T21:54:31.089Z,97705.19
2022-08-08T21:58:43.137Z,97701.38
2022-08-08T22:04:15.444Z,97700.03
2022-08-08T22:09:41.129Z,97698.53
2022-08-08T22:15:07.280Z,97708.47
2022-08-08T22:20:28.421Z,97705.69
2022-08-08T22:26:28.244Z,97705.34
2022-08-08T22:31:30.307Z,97703.88
2022-08-08T22:36:56.063Z,97701.78
2022-08-08T22:42:27.164Z,97701.28
2022-08-08T22:47:49.458Z,97704.16
2022-08-08T22:54:30.991Z,97704.16
2022-08-08T22:58:54.164Z,97705.84
2022-08-08T23:04:18.401Z,97702.06
2022-08-08T23:09:55.231Z,97703.44
2022-08-08T23:16:39.331Z,97699.94
2022-08-08T23:21:05.291Z,97709.69
2022-08-08T23:26:28.788Z,97707.22
2022-08-08T23:31:49.787Z,97706.06
2022-08-08T23:37:11.584Z,97705.91
2022-08-08T23:42:33.070Z,97704.81
2022-08-08T23:49:04.617Z,97696.56
2022-08-08T23:54:05.418Z,97700.19
2022-08-08T23:59:19.737Z,97692.75
